Time;durP1;ratioP1;P1;durP2;ratioP2;P2;SDS_P1;SDS_P2;PMS_P1;PMS_P2;Temp;Humidity;BMP_temperature;BMP_pressure;BME280_temperature;BME280_humidity;BME280_pressure;Samples;Min_cycle;Max_cycle;Signal;HPM_P1;HPM_P2
2023/01/29 00:02:22;;;;;;;9.80;5.68;;;4.40;99.90;;;;;;5132947;27;20043;-79
2023/01/29 00:04:48;;;;;;;10.70;5.68;;;4.40;99.90;;;;;;5110853;27;20069;-79
2023/01/29 00:07:14;;;;;;;11.70;5.75;;;4.40;99.90;;;;;;5090951;27;20058;-80
2023/01/29 00:09:41;;;;;;;9.02;5.32;;;4.40;99.90;;;;;;5125699;27;20286;-80
2023/01/29 00:12:09;;;;;;;9.68;5.43;;;4.40;99.90;;;;;;5073260;27;20144;-80
2023/01/29 00:14:35;;;;;;;10.65;5.72;;;4.40;99.90;;;;;;5074775;27;20051;-82
2023/01/29 00:17:01;;;;;;;11.95;6.05;;;4.40;99.90;;;;;;5107205;27;20501;-79
2023/01/29 00:19:27;;;;;;;10.32;5.80;;;4.40;99.90;;;;;;5107225;27;20043;-79
2023/01/29 00:21:53;;;;;;;9.32;5.22;;;4.40;99.90;;;;;;5089919;27;20039;-79
2023/01/29 00:24:18;;;;;;;8.80;5.72;;;4.50;99.90;;;;;;5073504;27;20050;-79
2023/01/29 00:26:44;;;;;;;11.07;6.13;;;4.40;99.90;;;;;;5106995;28;20130;-80
2023/01/29 00:29:10;;;;;;;10.27;5.95;;;4.40;99.90;;;;;;5073227;27;20051;-79
2023/01/29 00:31:36;;;;;;;10.82;6.30;;;4.40;99.90;;;;;;5107656;28;20043;-79
2023/01/29 00:34:02;;;;;;;9.38;6.68;;;4.40;99.90;;;;;;5106925;28;20457;-79
2023/01/29 00:36:28;;;;;;;14.52;7.03;;;4.40;99.90;;;;;;5125672;28;20086;-79
2023/01/29 00:38:59;;;;;;;14.25;6.07;;;4.40;99.90;;;;;;5125447;28;20183;-79
2023/01/29 00:46:59;;;;;;;12.70;6.47;;;5.70;99.90;;;;;;5125601;28;20065;-80
2023/01/29 00:49:25;;;;;;;11.15;5.95;;;4.40;99.90;;;;;;5107198;28;20047;-79
2023/01/29 00:54:35;;;;;;;12.82;6.97;;;4.60;99.90;;;;;;5109818;28;20053;-80
2023/01/29 00:57:02;;;;;;;11.40;6.85;;;4.40;99.90;;;;;;5089932;28;20043;-79
2023/01/29 00:59:27;;;;;;;9.65;6.85;;;4.70;99.90;;;;;;5089619;28;20085;-79
2023/01/29 01:04:42;;;;;;;11.40;6.68;;;4.40;99.90;;;;;;5064383;28;20051;-79
2023/01/29 01:07:07;;;;;;;14.35;7.40;;;4.40;99.90;;;;;;5125765;28;20087;-79
2023/01/29 01:12:20;;;;;;;13.35;6.53;;;4.40;99.90;;;;;;5124726;28;20061;-79
2023/01/29 01:14:46;;;;;;;10.13;6.70;;;4.80;99.90;;;;;;5090472;28;20134;-80
2023/01/29 01:17:12;;;;;;;10.43;7.05;;;4.40;99.90;;;;;;5089543;28;20397;-79
2023/01/29 01:19:38;;;;;;;15.93;7.30;;;4.70;99.90;;;;;;5106789;28;20047;-79
2023/01/29 01:22:03;;;;;;;15.38;7.80;;;4.30;99.90;;;;;;5091066;27;20059;-80
2023/01/29 01:24:30;;;;;;;11.18;6.80;;;4.30;99.90;;;;;;5093309;27;20047;-79
2023/01/29 01:26:55;;;;;;;23.88;8.05;;;4.40;99.90;;;;;;5110197;27;20532;-79
2023/01/29 01:29:21;;;;;;;9.38;6.63;;;4.30;99.90;;;;;;5109960;27;20043;-79
2023/01/29 01:31:47;;;;;;;9.70;6.60;;;5.20;99.90;;;;;;5110681;27;20048;-79
2023/01/29 01:34:12;;;;;;;13.27;7.57;;;4.30;99.90;;;;;;5110077;27;20050;-79
2023/01/29 01:36:38;;;;;;;12.50;7.85;;;4.80;99.90;;;;;;5093500;27;20096;-79
2023/01/29 01:39:04;;;;;;;13.68;7.75;;;4.40;99.90;;;;;;5110166;27;20066;-79
2023/01/29 01:41:30;;;;;;;15.98;8.10;;;4.40;99.90;;;;;;5094046;27;20484;-79
2023/01/29 01:43:58;;;;;;;14.30;7.43;;;4.30;99.90;;;;;;5110078;27;20130;-80
2023/01/29 01:46:28;;;;;;;14.75;8.40;;;4.40;99.90;;;;;;5093565;27;20108;-79
2023/01/29 01:49:00;;;;;;;14.43;7.97;;;4.40;99.90;;;;;;5110491;27;20057;-79
2023/01/29 01:51:29;;;;;;;12.30;8.02;;;4.40;99.90;;;;;;5110174;27;20080;-79
2023/01/29 01:54:05;;;;;;;12.80;8.05;;;4.40;99.90;;;;;;5110614;27;20150;-80
2023/01/29 01:56:39;;;;;;;12.05;8.23;;;4.40;99.90;;;;;;5109358;27;20040;-79
2023/01/29 01:59:08;;;;;;;13.50;8.10;;;4.40;99.90;;;;;;5110481;27;20043;-79
2023/01/29 02:01:34;;;;;;;16.42;9.13;;;4.40;99.90;;;;;;5109824;27;20086;-79
2023/01/29 02:09:55;;;;;;;16.35;9.00;;;4.40;99.90;;;;;;5109866;27;20099;-79
2023/01/29 02:12:22;;;;;;;16.63;8.57;;;4.40;99.90;;;;;;5092610;27;20046;-79
2023/01/29 02:14:47;;;;;;;15.57;8.30;;;4.40;99.90;;;;;;5109771;27;20035;-79
2023/01/29 02:17:16;;;;;;;17.30;9.25;;;4.60;99.90;;;;;;5076059;27;20043;-79
2023/01/29 02:19:48;;;;;;;15.60;8.35;;;4.40;99.90;;;;;;5109618;27;20043;-79
2023/01/29 02:22:15;;;;;;;15.07;8.00;;;4.40;99.90;;;;;;5109192;27;20139;-79
2023/01/29 02:25:08;;;;;;;14.82;9.30;;;4.40;99.90;;;;;;5109457;27;20047;-79
2023/01/29 02:27:56;;;;;;;16.20;8.40;;;4.40;99.90;;;;;;5110127;27;20055;-79
2023/01/29 02:30:26;;;;;;;13.38;9.02;;;4.40;99.90;;;;;;5092469;27;20043;-79
2023/01/29 02:33:06;;;;;;;12.82;9.25;;;4.40;99.90;;;;;;5108211;27;20482;-79
2023/01/29 02:35:48;;;;;;;19.00;10.60;;;4.40;99.90;;;;;;5109220;27;20046;-79
2023/01/29 02:38:20;;;;;;;15.88;9.20;;;4.50;99.90;;;;;;5109186;27;20050;-79
2023/01/29 02:40:55;;;;;;;16.15;10.00;;;4.50;99.90;;;;;;5092441;27;20085;-79
2023/01/29 02:43:29;;;;;;;21.15;10.55;;;4.50;99.90;;;;;;5092022;27;20188;-80
2023/01/29 02:46:16;;;;;;;22.63;10.60;;;4.60;99.90;;;;;;5109436;27;20134;-80
2023/01/29 02:48:55;;;;;;;21.38;10.35;;;4.40;99.90;;;;;;5109330;27;20039;-80
2023/01/29 02:51:30;;;;;;;15.80;10.00;;;5.50;99.90;;;;;;5109080;27;20039;-80
2023/01/29 02:54:09;;;;;;;13.90;9.68;;;4.40;99.90;;;;;;5091958;27;20497;-79
2023/01/29 02:56:57;;;;;;;16.17;10.50;;;3.30;99.90;;;;;;5108519;27;20072;-79
2023/01/29 02:59:54;;;;;;;16.10;10.02;;;4.40;99.90;;;;;;5108548;27;20124;-80
2023/01/29 03:02:31;;;;;;;20.55;10.43;;;4.40;99.90;;;;;;5091565;27;20039;-79
2023/01/29 03:05:06;;;;;;;16.15;9.95;;;4.40;99.90;;;;;;5091196;27;20035;-79
2023/01/29 03:07:41;;;;;;;18.52;11.45;;;4.40;99.90;;;;;;5091662;27;20503;-79
2023/01/29 03:10:11;;;;;;;15.57;9.57;;;4.40;99.90;;;;;;5092354;27;20027;-79
2023/01/29 03:12:39;;;;;;;14.23;10.85;;;4.40;99.90;;;;;;5108300;27;20541;-79
2023/01/29 03:15:15;;;;;;;15.23;10.75;;;4.40;99.90;;;;;;5108540;27;20050;-79
2023/01/29 03:17:56;;;;;;;18.10;10.65;;;4.40;99.90;;;;;;5108091;27;20082;-79
2023/01/29 03:20:30;;;;;;;15.48;9.88;;;4.40;99.90;;;;;;5091051;27;20047;-79
2023/01/29 03:23:02;;;;;;;17.33;10.45;;;4.40;99.90;;;;;;5108268;27;20096;-79
2023/01/29 03:34:22;;;;;;;17.88;11.77;;;4.30;99.90;;;;;;5108401;27;20039;-80
2023/01/29 03:37:00;;;;;;;17.20;11.70;;;4.30;99.90;;;;;;5108209;27;20066;-80
2023/01/29 03:39:27;;;;;;;21.88;13.07;;;4.30;99.90;;;;;;5090845;27;20141;-80
2023/01/29 03:42:15;;;;;;;20.13;12.73;;;4.30;99.90;;;;;;5107889;27;20112;-80
2023/01/29 03:44:46;;;;;;;21.02;13.13;;;4.30;99.90;;;;;;5107908;27;20093;-80
2023/01/29 03:47:31;;;;;;;24.17;14.32;;;4.30;99.90;;;;;;5091261;27;20047;-80
2023/01/29 03:50:12;;;;;;;19.00;13.18;;;4.30;99.90;;;;;;5107991;27;20053;-80
2023/01/29 03:53:00;;;;;;;21.08;14.35;;;4.30;99.90;;;;;;5090908;27;20043;-80
2023/01/29 03:55:38;;;;;;;20.30;14.30;;;4.30;99.90;;;;;;5107501;27;20054;-80
2023/01/29 03:58:19;;;;;;;25.60;15.73;;;4.30;99.90;;;;;;5091548;27;20448;-80
2023/01/29 04:00:59;;;;;;;23.15;15.90;;;4.30;99.90;;;;;;5126085;27;20039;-80
2023/01/29 04:03:48;;;;;;;28.77;16.30;;;4.30;99.90;;;;;;5090260;27;20082;-80
2023/01/29 04:06:20;;;;;;;26.15;17.45;;;4.30;99.90;;;;;;5107786;27;20057;-80
2023/01/29 04:08:54;;;;;;;24.73;15.70;;;4.30;99.90;;;;;;5107160;27;20051;-80
2023/01/29 04:11:22;;;;;;;26.70;16.85;;;4.30;99.90;;;;;;5090796;27;20047;-80
2023/01/29 04:13:48;;;;;;;25.13;16.52;;;4.30;99.90;;;;;;5107454;27;20043;-80
2023/01/29 04:16:20;;;;;;;26.60;17.98;;;4.30;99.90;;;;;;5090839;27;20126;-80
2023/01/29 04:18:47;;;;;;;26.55;17.50;;;4.30;99.90;;;;;;5107619;27;20047;-80
2023/01/29 04:21:14;;;;;;;24.35;16.27;;;4.30;99.90;;;;;;5090779;27;20105;-80
2023/01/29 04:23:39;;;;;;;28.27;16.65;;;4.30;99.90;;;;;;5090772;27;20093;-79
2023/01/29 04:26:23;;;;;;;26.67;17.05;;;4.30;99.90;;;;;;5107011;28;20079;-80
2023/01/29 04:29:25;;;;;;;23.90;16.50;;;4.30;99.90;;;;;;5126089;27;20034;-80
2023/01/29 04:31:56;;;;;;;24.73;15.90;;;4.30;99.90;;;;;;5036248;27;20053;-80
2023/01/29 04:34:33;;;;;;;27.35;15.68;;;4.40;99.90;;;;;;5107569;28;20073;-80
2023/01/29 04:37:15;;;;;;;25.33;14.93;;;5.60;99.90;;;;;;5107240;28;20047;-80
2023/01/29 04:40:13;;;;;;;22.77;15.10;;;4.40;99.90;;;;;;5107005;28;20054;-80
2023/01/29 04:42:59;;;;;;;19.75;13.98;;;4.40;99.90;;;;;;5106970;28;20867;-80
2023/01/29 04:45:37;;;;;;;25.42;14.90;;;3.30;99.90;;;;;;5090435;28;20047;-80
2023/01/29 04:48:24;;;;;;;24.63;15.80;;;4.40;99.90;;;;;;5125409;28;20032;-80
2023/01/29 04:51:07;;;;;;;25.35;15.35;;;4.40;99.90;;;;;;5107347;28;20445;-80
2023/01/29 04:53:51;;;;;;;23.42;14.60;;;4.40;99.90;;;;;;5107150;28;20035;-79
2023/01/29 04:56:33;;;;;;;21.83;14.13;;;4.40;99.90;;;;;;5090898;27;20054;-81
2023/01/29 04:59:06;;;;;;;26.48;16.25;;;5.10;99.90;;;;;;5129916;27;20120;-80
2023/01/29 05:01:34;;;;;;;28.75;16.23;;;4.40;99.90;;;;;;5111346;27;20035;-80
2023/01/29 05:04:07;;;;;;;23.10;15.93;;;4.40;99.90;;;;;;5110840;27;20039;-80
2023/01/29 05:06:35;;;;;;;26.38;16.77;;;4.40;99.90;;;;;;5129891;27;20086;-81
2023/01/29 05:09:01;;;;;;;27.33;17.10;;;4.40;99.90;;;;;;5110412;27;20051;-81
2023/01/29 05:11:31;;;;;;;25.20;16.50;;;4.40;99.90;;;;;;5093850;27;20112;-80
2023/01/29 05:13:58;;;;;;;27.85;17.80;;;4.40;99.90;;;;;;5129891;27;20092;-81
2023/01/29 05:16:40;;;;;;;28.60;17.35;;;4.40;99.90;;;;;;5129343;27;20057;-80
2023/01/29 05:19:11;;;;;;;23.67;16.38;;;4.40;99.90;;;;;;5111197;27;20043;-80
2023/01/29 05:21:39;;;;;;;26.80;16.73;;;5.20;99.90;;;;;;5110292;27;20497;-80
2023/01/29 05:24:23;;;;;;;28.27;17.63;;;5.50;99.90;;;;;;5110469;27;20036;-80
2023/01/29 05:29:36;;;;;;;25.90;16.50;;;4.40;99.90;;;;;;5110349;27;20043;-80
2023/01/29 05:32:02;;;;;;;31.40;17.48;;;5.40;99.90;;;;;;5111205;27;20371;-80
2023/01/29 05:34:28;;;;;;;28.38;17.25;;;4.40;99.90;;;;;;5110496;27;20047;-80
2023/01/29 05:36:54;;;;;;;27.25;17.05;;;4.40;99.90;;;;;;5129053;27;20413;-80
2023/01/29 05:39:20;;;;;;;32.58;17.80;;;5.80;99.90;;;;;;5110005;27;20043;-80
2023/01/29 05:41:46;;;;;;;28.98;18.40;;;4.40;99.90;;;;;;5092980;27;20083;-80
2023/01/29 05:44:11;;;;;;;25.65;17.77;;;4.40;99.90;;;;;;5110723;27;20074;-80
2023/01/29 05:46:38;;;;;;;23.67;16.80;;;4.40;99.90;;;;;;5093393;27;20470;-80
2023/01/29 05:49:04;;;;;;;26.48;17.67;;;4.40;99.90;;;;;;5110628;27;20107;-80
2023/01/29 05:51:30;;;;;;;28.92;18.08;;;4.40;99.90;;;;;;5110498;27;20054;-81
2023/01/29 05:53:55;;;;;;;23.63;15.98;;;4.50;99.90;;;;;;5110316;27;20051;-81
2023/01/29 05:56:21;;;;;;;26.40;16.30;;;4.40;99.90;;;;;;5093181;27;20035;-80
2023/01/29 05:58:47;;;;;;;24.45;16.45;;;4.30;99.90;;;;;;5109805;27;20074;-81
2023/01/29 06:01:18;;;;;;;26.33;16.83;;;4.00;99.90;;;;;;5092972;27;20069;-81
2023/01/29 06:03:44;;;;;;;28.02;16.13;;;5.40;99.90;;;;;;5109374;27;20512;-80
2023/01/29 06:06:10;;;;;;;27.08;16.75;;;4.40;99.90;;;;;;5093426;27;20122;-80
2023/01/29 06:08:36;;;;;;;25.80;16.70;;;4.40;99.90;;;;;;5109997;27;20064;-80
2023/01/29 06:11:03;;;;;;;25.73;17.35;;;5.30;99.90;;;;;;5092947;27;20130;-80
2023/01/29 06:13:29;;;;;;;23.10;15.13;;;4.30;99.90;;;;;;5109047;27;20565;-80
2023/01/29 06:15:54;;;;;;;23.83;15.50;;;4.60;99.90;;;;;;5092626;27;20146;-80
2023/01/29 06:18:20;;;;;;;24.13;15.27;;;4.40;99.90;;;;;;5092553;27;20039;-80
2023/01/29 06:20:46;;;;;;;23.05;14.93;;;4.40;99.90;;;;;;5110247;27;20070;-81
2023/01/29 06:23:11;;;;;;;21.52;15.25;;;4.30;99.90;;;;;;5093304;27;20047;-80
2023/01/29 06:25:37;;;;;;;21.80;15.70;;;4.40;99.90;;;;;;5076300;27;20051;-81
2023/01/29 06:28:03;;;;;;;25.25;15.52;;;4.30;99.90;;;;;;5093510;27;20049;-81
2023/01/29 06:30:30;;;;;;;22.52;16.38;;;4.40;99.90;;;;;;5109719;27;20047;-80
2023/01/29 06:33:02;;;;;;;23.02;16.10;;;4.40;99.90;;;;;;5093368;27;20043;-80
2023/01/29 06:35:29;;;;;;;17.50;12.17;;;4.40;99.90;;;;;;5076490;27;20054;-81
2023/01/29 06:37:55;;;;;;;26.92;17.70;;;4.40;99.90;;;;;;5092013;27;20035;-80
2023/01/29 06:40:21;;;;;;;31.92;18.35;;;4.90;99.90;;;;;;5092176;27;20079;-81
2023/01/29 06:42:47;;;;;;;30.20;20.08;;;5.10;99.90;;;;;;5108866;27;20082;-80
2023/01/29 06:45:12;;;;;;;29.15;18.73;;;4.90;99.90;;;;;;5109138;27;20051;-80
2023/01/29 06:47:38;;;;;;;33.10;19.40;;;4.40;99.90;;;;;;5108194;27;20047;-81
2023/01/29 06:50:04;;;;;;;31.20;20.27;;;4.50;99.90;;;;;;5108855;27;20091;-80
2023/01/29 06:52:30;;;;;;;31.98;20.77;;;4.40;99.90;;;;;;5108835;27;20043;-80
2023/01/29 06:54:55;;;;;;;31.73;20.88;;;5.70;99.90;;;;;;5074623;27;20192;-80
2023/01/29 06:57:22;;;;;;;32.90;20.73;;;4.50;99.90;;;;;;5092581;27;20035;-80
2023/01/29 06:59:47;;;;;;;32.13;21.00;;;4.40;99.90;;;;;;5108558;27;20050;-80
2023/01/29 07:02:14;;;;;;;34.75;21.17;;;5.10;99.90;;;;;;5108802;27;20043;-80
2023/01/29 07:04:41;;;;;;;32.13;20.52;;;4.40;99.90;;;;;;5108085;27;20053;-81
2023/01/29 07:07:12;;;;;;;36.85;22.35;;;4.40;99.90;;;;;;5091908;27;20501;-81
2023/01/29 07:09:39;;;;;;;38.10;20.45;;;4.40;99.90;;;;;;5092451;27;20406;-81
2023/01/29 07:12:05;;;;;;;33.92;22.17;;;4.70;99.90;;;;;;5091221;27;20079;-81
2023/01/29 07:14:31;;;;;;;31.23;20.92;;;4.40;99.90;;;;;;5091512;27;20047;-81
2023/01/29 07:16:57;;;;;;;33.05;21.42;;;4.40;99.90;;;;;;5091707;27;20039;-81
2023/01/29 07:19:22;;;;;;;34.83;21.55;;;5.20;99.90;;;;;;5091218;27;20256;-81
2023/01/29 07:21:48;;;;;;;37.03;19.67;;;4.90;99.90;;;;;;5090797;27;20490;-81
2023/01/29 07:24:18;;;;;;;30.30;19.67;;;4.40;99.90;;;;;;5107940;27;20051;-81
2023/01/29 07:26:44;;;;;;;35.42;20.10;;;5.20;99.90;;;;;;5108500;27;20043;-81
2023/01/29 07:29:09;;;;;;;29.25;19.52;;;4.40;99.90;;;;;;5090732;27;20049;-81
2023/01/29 07:31:35;;;;;;;27.25;19.65;;;4.40;99.90;;;;;;5091183;27;20047;-81
2023/01/29 07:34:01;;;;;;;30.10;18.88;;;4.40;99.90;;;;;;5091013;27;20039;-81
2023/01/29 07:36:27;;;;;;;29.83;18.65;;;4.40;99.90;;;;;;5091736;27;20087;-81
2023/01/29 07:38:53;;;;;;;30.45;18.40;;;4.40;99.90;;;;;;5108022;27;20635;-81
2023/01/29 07:41:18;;;;;;;26.92;19.52;;;4.40;99.90;;;;;;5090828;27;20051;-81
2023/01/29 07:43:47;;;;;;;32.58;18.98;;;4.50;99.90;;;;;;5108396;27;20067;-81
2023/01/29 07:46:13;;;;;;;29.60;19.42;;;4.50;99.90;;;;;;5090769;27;20039;-81
2023/01/29 07:48:39;;;;;;;32.63;19.67;;;4.50;99.90;;;;;;5107298;27;20055;-81
2023/01/29 07:51:05;;;;;;;28.55;20.60;;;4.50;99.90;;;;;;5090717;27;20487;-80
2023/01/29 07:53:31;;;;;;;37.47;20.40;;;4.50;99.90;;;;;;5090984;27;20448;-80
2023/01/29 07:55:57;;;;;;;33.60;21.42;;;4.50;99.90;;;;;;5107541;27;20047;-81
2023/01/29 07:58:23;;;;;;;33.00;22.60;;;4.50;99.90;;;;;;5107554;27;20088;-81
2023/01/29 08:00:49;;;;;;;36.42;21.23;;;4.50;99.90;;;;;;5107695;27;20055;-81
2023/01/29 08:03:17;;;;;;;29.98;21.58;;;4.50;99.90;;;;;;5090312;27;20458;-81
2023/01/29 08:05:43;;;;;;;31.42;23.08;;;5.30;99.90;;;;;;5091089;27;20131;-81
2023/01/29 08:08:10;;;;;;;30.85;22.15;;;4.60;99.90;;;;;;5090432;27;20122;-81
2023/01/29 08:10:36;;;;;;;31.90;21.63;;;4.50;99.90;;;;;;5091023;27;20077;-81
2023/01/29 08:13:03;;;;;;;30.17;21.35;;;4.40;99.90;;;;;;5090339;27;20096;-80
2023/01/29 08:15:29;;;;;;;31.13;22.13;;;4.80;99.90;;;;;;5090241;27;20079;-81
2023/01/29 08:17:55;;;;;;;32.30;21.75;;;5.50;99.90;;;;;;5107401;27;20096;-80
2023/01/29 08:20:21;;;;;;;33.60;22.02;;;4.50;99.90;;;;;;5107392;27;20042;-80
2023/01/29 08:22:48;;;;;;;30.42;21.27;;;4.50;99.90;;;;;;5107931;27;20047;-81
2023/01/29 08:25:14;;;;;;;36.72;23.15;;;4.50;99.90;;;;;;5107283;28;20039;-81
2023/01/29 08:27:40;;;;;;;35.65;21.98;;;4.50;99.90;;;;;;5107236;28;20039;-80
2023/01/29 08:30:09;;;;;;;35.47;23.52;;;4.50;99.90;;;;;;5106973;27;20122;-80
2023/01/29 08:32:34;;;;;;;39.58;23.17;;;4.50;99.90;;;;;;5107314;27;20054;-80
2023/01/29 08:35:00;;;;;;;32.30;22.25;;;4.50;99.90;;;;;;5109990;28;20043;-81
2023/01/29 08:37:26;;;;;;;38.15;23.45;;;4.50;99.90;;;;;;5074281;28;20393;-80
2023/01/29 08:39:52;;;;;;;33.85;23.48;;;4.50;99.90;;;;;;5075846;28;20058;-80
2023/01/29 08:42:20;;;;;;;36.78;23.70;;;4.50;99.90;;;;;;5108327;28;20062;-84
2023/01/29 08:44:46;;;;;;;36.55;23.90;;;5.10;99.90;;;;;;5107396;28;20043;-87
2023/01/29 08:47:12;;;;;;;37.70;24.23;;;4.90;99.90;;;;;;5072976;28;20074;-84
2023/01/29 08:49:37;;;;;;;34.25;23.60;;;4.50;99.90;;;;;;5106830;28;20096;-88
2023/01/29 08:52:03;;;;;;;34.42;21.67;;;4.50;99.90;;;;;;5089459;28;20061;-86
2023/01/29 08:54:29;;;;;;;36.55;24.38;;;4.50;99.90;;;;;;5089765;28;20088;-85
2023/01/29 08:56:55;;;;;;;36.88;22.77;;;4.70;99.90;;;;;;5089691;28;20542;-85
2023/01/29 08:59:21;;;;;;;34.03;23.38;;;5.30;99.90;;;;;;5106462;28;20046;-85
2023/01/29 09:01:47;;;;;;;35.47;23.88;;;5.70;99.90;;;;;;5073149;28;20043;-84
2023/01/29 09:04:13;;;;;;;37.88;24.77;;;5.90;99.90;;;;;;5089424;28;20039;-85
2023/01/29 09:06:38;;;;;;;38.15;24.08;;;4.50;99.90;;;;;;5072982;28;20133;-86
2023/01/29 09:09:04;;;;;;;39.03;23.48;;;4.60;99.90;;;;;;5089474;28;20043;-84
2023/01/29 09:11:30;;;;;;;35.30;22.92;;;4.60;99.90;;;;;;5072573;28;20500;-85
2023/01/29 09:13:55;;;;;;;36.10;22.30;;;5.50;99.90;;;;;;5089754;28;20101;-85
2023/01/29 09:16:21;;;;;;;36.22;23.38;;;4.60;99.90;;;;;;5072448;28;20039;-85
2023/01/29 09:18:47;;;;;;;34.95;22.70;;;4.70;99.90;;;;;;5090056;28;20082;-85
2023/01/29 09:21:12;;;;;;;33.53;22.77;;;4.70;99.90;;;;;;5107043;28;20042;-85
2023/01/29 09:23:38;;;;;;;38.72;24.40;;;4.80;99.90;;;;;;5072529;28;20065;-85
2023/01/29 09:26:05;;;;;;;37.53;23.98;;;5.30;99.90;;;;;;5106027;28;20046;-85
2023/01/29 09:28:31;;;;;;;41.92;23.75;;;4.70;99.90;;;;;;5089421;28;20077;-85
2023/01/29 09:31:01;;;;;;;37.42;22.92;;;4.70;99.90;;;;;;5089503;28;20127;-85
2023/01/29 09:33:27;;;;;;;36.45;22.85;;;4.80;99.90;;;;;;5106151;28;20071;-84
2023/01/29 09:35:52;;;;;;;37.47;23.17;;;4.80;99.90;;;;;;5072862;28;20051;-84
2023/01/29 09:38:18;;;;;;;39.97;24.00;;;5.30;99.90;;;;;;5072535;28;20047;-84
2023/01/29 09:41:04;;;;;;;36.63;23.40;;;4.90;99.90;;;;;;5106650;28;20046;-85
2023/01/29 09:43:46;;;;;;;37.03;22.63;;;5.00;99.90;;;;;;5108711;27;20055;-84
2023/01/29 09:46:19;;;;;;;35.28;21.48;;;5.00;99.90;;;;;;5092793;27;20043;-84
2023/01/29 09:48:45;;;;;;;38.22;21.02;;;5.00;99.90;;;;;;5110601;27;20447;-84
2023/01/29 09:51:25;;;;;;;35.72;22.40;;;6.00;99.90;;;;;;5092961;27;20039;-85
2023/01/29 09:54:07;;;;;;;38.00;22.27;;;5.30;99.90;;;;;;5093700;27;20091;-84
2023/01/29 09:56:34;;;;;;;35.67;20.95;;;5.00;99.90;;;;;;5093574;27;20394;-85
2023/01/29 09:59:00;;;;;;;33.38;21.60;;;5.00;99.90;;;;;;5092876;27;20086;-85
2023/01/29 10:01:28;;;;;;;42.33;22.77;;;5.00;99.90;;;;;;5110823;27;20088;-85
2023/01/29 10:04:03;;;;;;;30.40;21.50;;;5.00;99.90;;;;;;5093166;27;20443;-84
2023/01/29 10:06:49;;;;;;;37.00;22.05;;;4.70;99.90;;;;;;5110347;27;20538;-85
2023/01/29 10:09:20;;;;;;;43.25;23.23;;;5.10;99.90;;;;;;5109550;27;20086;-84
2023/01/29 10:12:18;;;;;;;33.22;21.88;;;5.10;99.90;;;;;;5109789;27;20464;-84
2023/01/29 10:15:20;;;;;;;36.78;22.45;;;5.10;99.90;;;;;;5109962;27;20055;-84
2023/01/29 10:18:00;;;;;;;37.28;22.52;;;5.10;99.90;;;;;;5092112;27;20039;-85
2023/01/29 10:21:03;;;;;;;35.55;22.38;;;5.20;99.90;;;;;;5109418;27;20043;-84
2023/01/29 10:23:33;;;;;;;37.80;21.85;;;5.10;99.90;;;;;;5075913;27;20468;-84
2023/01/29 10:25:59;;;;;;;31.75;21.88;;;5.20;99.90;;;;;;5091984;27;20047;-85
2023/01/29 10:28:47;;;;;;;36.63;22.20;;;5.10;99.90;;;;;;5075503;27;20050;-86
2023/01/29 10:31:26;;;;;;;35.63;22.35;;;5.50;99.90;;;;;;5110082;27;20398;-86
2023/01/29 10:34:22;;;;;;;34.65;23.33;;;5.20;99.90;;;;;;5109386;27;20510;-86
2023/01/29 10:36:49;;;;;;;37.33;22.83;;;5.20;99.90;;;;;;5092790;27;20089;-94
2023/01/29 10:39:24;;;;;;;36.45;22.98;;;6.20;99.90;;;;;;5076144;27;20177;-86
2023/01/29 10:42:14;;;;;;;39.13;22.98;;;5.50;99.90;;;;;;5112315;27;20051;-86
2023/01/29 10:45:07;;;;;;;37.28;22.40;;;5.20;99.90;;;;;;5097643;27;20070;-85
2023/01/29 10:47:33;;;;;;;34.03;21.98;;;5.20;99.90;;;;;;5110108;27;20074;-85
2023/01/29 10:50:08;;;;;;;35.33;22.15;;;5.20;99.90;;;;;;5093374;27;20090;-84
2023/01/29 10:53:04;;;;;;;39.75;24.02;;;4.70;99.90;;;;;;5092543;27;20039;-89
2023/01/29 10:55:41;;;;;;;38.50;21.63;;;5.30;99.90;;;;;;5108590;27;20047;-89
2023/01/29 10:58:19;;;;;;;37.67;22.85;;;5.40;99.90;;;;;;5109687;27;20155;-89
2023/01/29 11:00:44;;;;;;;33.47;20.92;;;5.40;99.90;;;;;;5092822;27;20031;-88
2023/01/29 11:03:23;;;;;;;39.70;21.75;;;5.60;99.90;;;;;;5108775;27;20050;-85
2023/01/29 11:06:03;;;;;;;31.85;21.13;;;6.10;99.90;;;;;;5109140;27;20046;-85
2023/01/29 11:08:38;;;;;;;34.67;21.90;;;5.30;99.90;;;;;;5091337;27;20043;-85
2023/01/29 11:11:11;;;;;;;35.08;21.95;;;5.30;99.90;;;;;;5108923;27;20049;-86
2023/01/29 11:13:42;;;;;;;;;;;5.60;99.90;;;;;;5108735;27;20047;-86
2023/01/29 11:16:09;;;;;;;31.73;20.38;;;5.20;99.90;;;;;;5091110;27;19925;-86
2023/01/29 11:18:58;;;;;;;34.55;23.02;;;5.20;99.90;;;;;;5108499;27;20050;-87
2023/01/29 11:21:25;;;;;;;35.40;21.33;;;5.20;99.90;;;;;;5108631;27;20062;-86
2023/01/29 11:24:14;;;;;;;35.30;23.17;;;6.30;99.90;;;;;;5091108;27;20055;-86
2023/01/29 11:26:41;;;;;;;37.78;22.13;;;5.30;99.90;;;;;;5108169;27;20043;-81
2023/01/29 11:29:43;;;;;;;39.67;22.70;;;5.30;99.90;;;;;;5090716;27;20047;-82
2023/01/29 11:32:20;;;;;;;39.50;21.50;;;5.30;99.90;;;;;;5086455;27;20051;-88
2023/01/29 11:34:56;;;;;;;37.75;23.48;;;5.30;99.90;;;;;;5090713;27;20133;-83
2023/01/29 11:37:22;;;;;;;34.85;22.08;;;6.40;99.90;;;;;;5090550;27;20051;-87
2023/01/29 11:39:49;;;;;;;33.83;21.15;;;5.40;99.90;;;;;;5093549;27;20035;-86
2023/01/29 11:42:22;;;;;;;36.75;22.38;;;6.00;99.90;;;;;;5091142;27;20128;-84
2023/01/29 11:44:48;;;;;;;35.83;21.48;;;5.30;99.90;;;;;;5091470;27;20410;-82
2023/01/29 11:47:26;;;;;;;38.92;22.13;;;5.30;99.90;;;;;;5107659;27;20123;-82
2023/01/29 11:49:57;;;;;;;41.65;23.33;;;5.30;99.90;;;;;;5090705;27;20509;-82
2023/01/29 11:52:57;;;;;;;34.53;21.02;;;5.30;99.90;;;;;;5107942;27;20042;-83
2023/01/29 11:55:26;;;;;;;35.47;21.95;;;5.30;99.90;;;;;;5076617;27;20055;-82
2023/01/29 11:57:58;;;;;;;34.60;22.20;;;5.30;99.90;;;;;;5091196;27;20040;-82
2023/01/29 12:00:25;;;;;;;30.20;19.80;;;5.30;99.90;;;;;;5107593;27;20051;-82
2023/01/29 12:02:57;;;;;;;35.13;20.20;;;5.30;99.90;;;;;;5108011;27;20459;-85
2023/01/29 12:05:25;;;;;;;34.65;21.42;;;5.40;99.90;;;;;;5107260;27;20047;-82
2023/01/29 12:08:01;;;;;;;37.13;20.98;;;5.40;99.90;;;;;;5107401;27;20066;-82
2023/01/29 12:10:34;;;;;;;33.58;20.60;;;5.40;99.90;;;;;;5107445;27;20047;-82
2023/01/29 12:13:09;;;;;;;32.63;20.38;;;5.40;99.90;;;;;;5107709;27;20183;-82
2023/01/29 12:15:40;;;;;;;36.47;20.65;;;5.40;99.90;;;;;;5107214;27;20571;-82
2023/01/29 12:18:26;;;;;;;33.15;19.42;;;5.40;99.90;;;;;;5107600;27;20482;-83
2023/01/29 12:21:00;;;;;;;38.38;21.75;;;5.40;99.90;;;;;;5106797;27;20147;-82
2023/01/29 12:23:37;;;;;;;31.95;20.25;;;5.40;99.90;;;;;;5107204;27;20055;-81
2023/01/29 12:26:14;;;;;;;28.63;18.90;;;5.40;99.90;;;;;;5107499;27;20080;-82
2023/01/29 12:28:46;;;;;;;29.20;19.88;;;5.40;99.90;;;;;;5106919;27;20082;-82
2023/01/29 12:31:37;;;;;;;28.00;18.58;;;5.40;99.90;;;;;;5107132;28;20035;-82
2023/01/29 12:34:17;;;;;;;29.77;17.45;;;5.40;99.90;;;;;;5107180;27;20082;-82
2023/01/29 12:36:52;;;;;;;29.33;18.58;;;5.50;99.90;;;;;;5090222;28;20039;-81
2023/01/29 12:39:19;;;;;;;28.48;17.92;;;6.80;99.90;;;;;;5106936;28;20555;-82
2023/01/29 12:41:49;;;;;;;31.65;17.95;;;5.50;99.90;;;;;;5106406;28;20043;-82
2023/01/29 12:44:21;;;;;;;25.23;16.65;;;5.50;99.90;;;;;;5107114;28;20084;-82
2023/01/29 12:46:51;;;;;;;28.08;17.42;;;5.50;99.90;;;;;;5106907;28;20054;-82
2023/01/29 12:49:27;;;;;;;25.20;15.95;;;5.60;99.90;;;;;;5091181;28;20031;-82
2023/01/29 12:52:12;;;;;;;23.13;14.90;;;5.60;99.90;;;;;;5110284;28;20404;-83
2023/01/29 12:54:58;;;;;;;24.30;15.73;;;5.60;99.90;;;;;;5109025;28;20104;-84
2023/01/29 12:57:41;;;;;;;21.60;14.88;;;5.60;99.90;;;;;;5107385;28;20047;-82
2023/01/29 13:00:23;;;;;;;16.27;10.68;;;5.60;99.90;;;;;;5090245;28;20057;-82
2023/01/29 13:03:14;;;;;;;24.92;14.27;;;5.70;99.90;;;;;;5089958;28;20046;-82
2023/01/29 13:05:49;;;;;;;22.85;15.10;;;5.70;99.90;;;;;;5107611;28;20103;-84
2023/01/29 13:08:22;;;;;;;25.83;15.02;;;6.10;99.90;;;;;;5089393;28;20039;-82
2023/01/29 13:10:51;;;;;;;27.35;14.70;;;6.40;99.90;;;;;;5106896;28;20571;-82
2023/01/29 13:13:43;;;;;;;22.65;14.65;;;5.70;99.90;;;;;;5106932;28;20078;-79
2023/01/29 13:16:21;;;;;;;22.52;14.25;;;5.70;99.90;;;;;;5106128;27;20069;-81
2023/01/29 13:18:57;;;;;;;21.88;14.13;;;5.70;99.90;;;;;;5094423;27;20427;-81
2023/01/29 13:21:37;;;;;;;24.15;14.50;;;5.70;99.90;;;;;;5093388;27;20570;-82
2023/01/29 13:24:08;;;;;;;21.58;12.57;;;5.70;99.90;;;;;;5110475;27;20378;-81
2023/01/29 13:26:35;;;;;;;22.23;14.73;;;5.70;99.90;;;;;;5110603;27;20055;-79
2023/01/29 13:29:01;;;;;;;22.52;14.77;;;6.40;99.90;;;;;;5109964;27;20047;-79
2023/01/29 13:31:36;;;;;;;19.73;13.50;;;5.60;99.90;;;;;;5110892;27;20043;-80
2023/01/29 13:34:22;;;;;;;23.83;13.90;;;5.70;99.90;;;;;;5109786;27;20043;-80